sensor_id;sensor_type;location;lat;lon;timestamp;pressure;altitude;pressure_sealevel;temperature;humidity
6128;BME280;7073;42.672;23.256;2022-11-23T00:01:47;93148.09;;;9.14;100.00
6128;BME280;7073;42.672;23.256;2022-11-23T00:04:14;93165.28;;;9.32;100.00
6128;BME280;7073;42.672;23.256;2022-11-23T00:06:40;93165.03;;;9.34;100.00
6128;BME280;7073;42.672;23.256;2022-11-23T00:09:10;93168.09;;;9.31;100.00
6128;BME280;7073;42.672;23.256;2022-11-23T00:11:37;93162.19;;;9.52;100.00
6128;BME280;7073;42.672;23.256;2022-11-23T00:14:03;93170.69;;;9.31;100.00
6128;BME280;7073;42.672;23.256;2022-11-23T00:16:30;93150.03;;;8.74;100.00
6128;BME280;7073;42.672;23.256;2022-11-23T00:18:58;93141.28;;;8.64;100.00
6128;BME280;7073;42.672;23.256;2022-11-23T00:21:29;93135.41;;;8.85;100.00
6128;BME280;7073;42.672;23.256;2022-11-23T00:23:56;93135.56;;;9.28;100.00
6128;BME280;7073;42.672;23.256;2022-11-23T00:26:24;93135.22;;;9.58;100.00
6128;BME280;7073;42.672;23.256;2022-11-23T00:28:51;93131.31;;;9.55;100.00
6128;BME280;7073;42.672;23.256;2022-11-23T00:31:19;93127.06;;;9.33;100.00
6128;BME280;7073;42.672;23.256;2022-11-23T00:33:49;93141.19;;;8.75;100.00
6128;BME280;7073;42.672;23.256;2022-11-23T00:36:17;93154.16;;;9.03;100.00
6128;BME280;7073;42.672;23.256;2022-11-23T00:38:44;93149.81;;;9.26;100.00
6128;BME280;7073;42.672;23.256;2022-11-23T00:41:13;93136.22;;;9.18;100.00
6128;BME280;7073;42.672;23.256;2022-11-23T00:43:42;93140.84;;;9.50;100.00
6128;BME280;7073;42.672;23.256;2022-11-23T00:46:12;93141.25;;;9.80;100.00
6128;BME280;7073;42.672;23.256;2022-11-23T00:48:39;93141.19;;;9.75;100.00
6128;BME280;7073;42.672;23.256;2022-11-23T00:51:08;93115.63;;;9.89;100.00
6128;BME280;7073;42.672;23.256;2022-11-23T00:53:35;93127.53;;;10.06;100.00
6128;BME280;7073;42.672;23.256;2022-11-23T00:56:03;93130.84;;;9.80;100.00
6128;BME280;7073;42.672;23.256;2022-11-23T00:58:30;93142.28;;;9.79;100.00
6128;BME280;7073;42.672;23.256;2022-11-23T01:01:05;93139.94;;;8.78;100.00
6128;BME280;7073;42.672;23.256;2022-11-23T01:03:32;93132.25;;;8.99;100.00
6128;BME280;7073;42.672;23.256;2022-11-23T01:06:04;93128.03;;;9.27;100.00
6128;BME280;7073;42.672;23.256;2022-11-23T01:08:32;93115.91;;;9.15;100.00
6128;BME280;7073;42.672;23.256;2022-11-23T01:11:00;93133.91;;;9.22;100.00
6128;BME280;7073;42.672;23.256;2022-11-23T01:13:27;93134.78;;;9.44;100.00
6128;BME280;7073;42.672;23.256;2022-11-23T01:15:54;93127.97;;;9.60;100.00
6128;BME280;7073;42.672;23.256;2022-11-23T01:18:22;93125.31;;;9.55;100.00
6128;BME280;7073;42.672;23.256;2022-11-23T01:20:50;93121.06;;;9.49;100.00
6128;BME280;7073;42.672;23.256;2022-11-23T01:23:16;93120.78;;;9.29;100.00
6128;BME280;7073;42.672;23.256;2022-11-23T01:25:43;93127.88;;;9.16;100.00
6128;BME280;7073;42.672;23.256;2022-11-23T01:28:10;93131.03;;;9.18;100.00
6128;BME280;7073;42.672;23.256;2022-11-23T01:30:37;93126.97;;;9.28;100.00
6128;BME280;7073;42.672;23.256;2022-11-23T01:33:04;93124.63;;;9.09;100.00
6128;BME280;7073;42.672;23.256;2022-11-23T01:35:32;93101.19;;;9.21;100.00
6128;BME280;7073;42.672;23.256;2022-11-23T01:37:59;93113.16;;;9.60;100.00
6128;BME280;7073;42.672;23.256;2022-11-23T01:40:26;93126.94;;;9.06;100.00
6128;BME280;7073;42.672;23.256;2022-11-23T01:42:54;93126.50;;;9.31;100.00
6128;BME280;7073;42.672;23.256;2022-11-23T01:45:32;93121.94;;;9.38;100.00
6128;BME280;7073;42.672;23.256;2022-11-23T01:48:00;93122.38;;;9.68;100.00
6128;BME280;7073;42.672;23.256;2022-11-23T01:50:27;93120.44;;;9.80;100.00
6128;BME280;7073;42.672;23.256;2022-11-23T01:52:55;93136.75;;;9.92;100.00
6128;BME280;7073;42.672;23.256;2022-11-23T01:55:24;93144.75;;;9.69;100.00
6128;BME280;7073;42.672;23.256;2022-11-23T01:57:52;93125.34;;;9.76;100.00
6128;BME280;7073;42.672;23.256;2022-11-23T02:00:19;93118.34;;;9.99;100.00
6128;BME280;7073;42.672;23.256;2022-11-23T02:02:50;93103.78;;;9.98;100.00
6128;BME280;7073;42.672;23.256;2022-11-23T02:05:20;93101.16;;;9.98;100.00
6128;BME280;7073;42.672;23.256;2022-11-23T02:07:50;93103.50;;;9.39;100.00
6128;BME280;7073;42.672;23.256;2022-11-23T02:10:19;93102.22;;;9.80;100.00
6128;BME280;7073;42.672;23.256;2022-11-23T02:12:47;93099.47;;;10.08;100.00
6128;BME280;7073;42.672;23.256;2022-11-23T02:15:14;93093.97;;;10.05;100.00
6128;BME280;7073;42.672;23.256;2022-11-23T02:17:42;93096.50;;;10.00;100.00
6128;BME280;7073;42.672;23.256;2022-11-23T02:20:11;93099.91;;;10.00;100.00
6128;BME280;7073;42.672;23.256;2022-11-23T02:22:48;93094.81;;;9.89;100.00
6128;BME280;7073;42.672;23.256;2022-11-23T02:25:26;93094.59;;;9.90;100.00
6128;BME280;7073;42.672;23.256;2022-11-23T02:27:58;93092.53;;;9.92;100.00
6128;BME280;7073;42.672;23.256;2022-11-23T02:30:26;93079.19;;;9.45;100.00
6128;BME280;7073;42.672;23.256;2022-11-23T02:32:54;93095.06;;;9.87;100.00
6128;BME280;7073;42.672;23.256;2022-11-23T02:35:21;93093.16;;;10.04;100.00
6128;BME280;7073;42.672;23.256;2022-11-23T02:37:49;93090.28;;;10.22;100.00
6128;BME280;7073;42.672;23.256;2022-11-23T02:40:24;93067.59;;;10.18;100.00
6128;BME280;7073;42.672;23.256;2022-11-23T02:42:51;93048.22;;;9.44;100.00
6128;BME280;7073;42.672;23.256;2022-11-23T02:45:26;93061.47;;;9.85;100.00
6128;BME280;7073;42.672;23.256;2022-11-23T02:47:56;93059.38;;;9.61;100.00
6128;BME280;7073;42.672;23.256;2022-11-23T02:50:23;93062.97;;;9.60;100.00
6128;BME280;7073;42.672;23.256;2022-11-23T02:52:50;93054.28;;;9.71;100.00
6128;BME280;7073;42.672;23.256;2022-11-23T02:55:17;93050.53;;;9.23;100.00
6128;BME280;7073;42.672;23.256;2022-11-23T02:57:44;93052.56;;;9.38;100.00
6128;BME280;7073;42.672;23.256;2022-11-23T03:00:12;93011.94;;;9.54;100.00
6128;BME280;7073;42.672;23.256;2022-11-23T03:02:40;93045.75;;;9.15;100.00
6128;BME280;7073;42.672;23.256;2022-11-23T03:05:07;93049.75;;;9.06;100.00
6128;BME280;7073;42.672;23.256;2022-11-23T03:07:34;93038.72;;;9.54;100.00
6128;BME280;7073;42.672;23.256;2022-11-23T03:10:02;93043.13;;;9.54;100.00
6128;BME280;7073;42.672;23.256;2022-11-23T03:12:28;93027.91;;;9.41;100.00
6128;BME280;7073;42.672;23.256;2022-11-23T03:14:55;93039.56;;;9.38;100.00
6128;BME280;7073;42.672;23.256;2022-11-23T03:17:22;93033.19;;;8.57;100.00
6128;BME280;7073;42.672;23.256;2022-11-23T03:19:50;93028.97;;;9.23;100.00
6128;BME280;7073;42.672;23.256;2022-11-23T03:22:17;93042.84;;;9.12;100.00
6128;BME280;7073;42.672;23.256;2022-11-23T03:24:43;93053.53;;;9.15;100.00
6128;BME280;7073;42.672;23.256;2022-11-23T03:27:10;93009.75;;;9.24;100.00
6128;BME280;7073;42.672;23.256;2022-11-23T03:29:37;93048.00;;;9.29;100.00
6128;BME280;7073;42.672;23.256;2022-11-23T03:32:04;93011.94;;;9.32;100.00
6128;BME280;7073;42.672;23.256;2022-11-23T03:34:31;93027.34;;;9.00;100.00
6128;BME280;7073;42.672;23.256;2022-11-23T03:36:59;93037.81;;;9.05;100.00
6128;BME280;7073;42.672;23.256;2022-11-23T03:39:26;92994.72;;;9.48;100.00
6128;BME280;7073;42.672;23.256;2022-11-23T03:41:53;93006.53;;;8.62;100.00
6128;BME280;7073;42.672;23.256;2022-11-23T03:44:20;93009.78;;;9.07;100.00
6128;BME280;7073;42.672;23.256;2022-11-23T03:46:47;92996.16;;;9.39;100.00
6128;BME280;7073;42.672;23.256;2022-11-23T03:49:15;92984.81;;;9.06;100.00
6128;BME280;7073;42.672;23.256;2022-11-23T03:51:42;92995.06;;;8.58;100.00
6128;BME280;7073;42.672;23.256;2022-11-23T03:54:10;92992.59;;;8.51;100.00
6128;BME280;7073;42.672;23.256;2022-11-23T03:56:36;92980.34;;;8.64;100.00
6128;BME280;7073;42.672;23.256;2022-11-23T03:59:03;92996.47;;;8.82;100.00
6128;BME280;7073;42.672;23.256;2022-11-23T04:01:30;92997.78;;;8.68;100.00
6128;BME280;7073;42.672;23.256;2022-11-23T04:03:57;93020.03;;;8.97;100.00
6128;BME280;7073;42.672;23.256;2022-11-23T04:06:24;93005.66;;;8.73;100.00
6128;BME280;7073;42.672;23.256;2022-11-23T04:08:50;93013.38;;;8.35;100.00
6128;BME280;7073;42.672;23.256;2022-11-23T04:11:18;93005.59;;;8.68;100.00
6128;BME280;7073;42.672;23.256;2022-11-23T04:13:45;93008.34;;;8.45;100.00
6128;BME280;7073;42.672;23.256;2022-11-23T04:16:12;93008.00;;;8.75;100.00
6128;BME280;7073;42.672;23.256;2022-11-23T04:18:39;93007.16;;;8.69;100.00
6128;BME280;7073;42.672;23.256;2022-11-23T04:21:06;93006.44;;;9.29;100.00
6128;BME280;7073;42.672;23.256;2022-11-23T04:23:33;93023.09;;;8.94;100.00
6128;BME280;7073;42.672;23.256;2022-11-23T04:25:59;93029.31;;;9.10;100.00
6128;BME280;7073;42.672;23.256;2022-11-23T04:28:27;93026.91;;;8.70;100.00
6128;BME280;7073;42.672;23.256;2022-11-23T04:30:54;93003.78;;;8.52;100.00
6128;BME280;7073;42.672;23.256;2022-11-23T04:33:23;93026.50;;;8.78;100.00
6128;BME280;7073;42.672;23.256;2022-11-23T04:35:50;93032.19;;;8.58;100.00
6128;BME280;7073;42.672;23.256;2022-11-23T04:38:16;93022.00;;;8.57;100.00
6128;BME280;7073;42.672;23.256;2022-11-23T04:40:46;93011.00;;;8.33;100.00
6128;BME280;7073;42.672;23.256;2022-11-23T04:43:13;93043.16;;;8.49;100.00
6128;BME280;7073;42.672;23.256;2022-11-23T04:45:41;93037.84;;;8.55;100.00
6128;BME280;7073;42.672;23.256;2022-11-23T04:48:08;93024.44;;;8.47;100.00
6128;BME280;7073;42.672;23.256;2022-11-23T04:50:34;93064.88;;;8.59;100.00
6128;BME280;7073;42.672;23.256;2022-11-23T04:53:03;93044.28;;;8.86;100.00
6128;BME280;7073;42.672;23.256;2022-11-23T04:55:29;93041.41;;;8.38;100.00
6128;BME280;7073;42.672;23.256;2022-11-23T04:57:56;93040.47;;;8.44;100.00
6128;BME280;7073;42.672;23.256;2022-11-23T05:00:23;93007.28;;;8.46;100.00
6128;BME280;7073;42.672;23.256;2022-11-23T05:02:52;93053.03;;;8.64;100.00
6128;BME280;7073;42.672;23.256;2022-11-23T05:05:19;93042.16;;;8.83;100.00
6128;BME280;7073;42.672;23.256;2022-11-23T05:07:45;93052.31;;;8.85;100.00
6128;BME280;7073;42.672;23.256;2022-11-23T05:10:12;93039.16;;;9.08;100.00
6128;BME280;7073;42.672;23.256;2022-11-23T05:12:39;93030.03;;;8.89;100.00
6128;BME280;7073;42.672;23.256;2022-11-23T05:15:06;93056.00;;;8.55;100.00
6128;BME280;7073;42.672;23.256;2022-11-23T05:17:33;93032.00;;;8.82;100.00
6128;BME280;7073;42.672;23.256;2022-11-23T05:20:02;93062.78;;;8.73;100.00
6128;BME280;7073;42.672;23.256;2022-11-23T05:22:29;93057.97;;;8.98;100.00
6128;BME280;7073;42.672;23.256;2022-11-23T05:24:55;93058.91;;;9.09;100.00
6128;BME280;7073;42.672;23.256;2022-11-23T05:27:22;93040.03;;;8.64;100.00
6128;BME280;7073;42.672;23.256;2022-11-23T05:29:49;93023.25;;;8.38;100.00
6128;BME280;7073;42.672;23.256;2022-11-23T05:32:16;93040.50;;;8.16;100.00
6128;BME280;7073;42.672;23.256;2022-11-23T05:34:42;93036.41;;;8.65;100.00
6128;BME280;7073;42.672;23.256;2022-11-23T05:37:11;93027.16;;;8.69;100.00
6128;BME280;7073;42.672;23.256;2022-11-23T05:39:38;93041.47;;;8.71;100.00
6128;BME280;7073;42.672;23.256;2022-11-23T05:42:04;93028.94;;;8.85;100.00
6128;BME280;7073;42.672;23.256;2022-11-23T05:44:31;93043.81;;;8.73;100.00
6128;BME280;7073;42.672;23.256;2022-11-23T05:46:58;93027.44;;;8.89;100.00
6128;BME280;7073;42.672;23.256;2022-11-23T05:49:25;93048.03;;;9.12;100.00
6128;BME280;7073;42.672;23.256;2022-11-23T05:51:52;93045.47;;;8.95;100.00
6128;BME280;7073;42.672;23.256;2022-11-23T05:54:20;93033.03;;;8.81;100.00
6128;BME280;7073;42.672;23.256;2022-11-23T05:56:47;93025.97;;;9.31;100.00
6128;BME280;7073;42.672;23.256;2022-11-23T05:59:13;93025.22;;;8.97;100.00
6128;BME280;7073;42.672;23.256;2022-11-23T06:01:40;93026.78;;;8.98;100.00
6128;BME280;7073;42.672;23.256;2022-11-23T06:04:07;93027.03;;;9.35;100.00
6128;BME280;7073;42.672;23.256;2022-11-23T06:06:34;93038.47;;;9.34;100.00
6128;BME280;7073;42.672;23.256;2022-11-23T06:09:00;93052.00;;;9.36;100.00
6128;BME280;7073;42.672;23.256;2022-11-23T06:11:29;93055.38;;;9.53;100.00
6128;BME280;7073;42.672;23.256;2022-11-23T06:13:56;93056.03;;;9.87;100.00
6128;BME280;7073;42.672;23.256;2022-11-23T06:16:23;93058.75;;;9.97;100.00
6128;BME280;7073;42.672;23.256;2022-11-23T06:18:50;93052.03;;;9.19;100.00
6128;BME280;7073;42.672;23.256;2022-11-23T06:21:17;93055.28;;;9.27;100.00
6128;BME280;7073;42.672;23.256;2022-11-23T06:23:45;93071.97;;;9.52;100.00
6128;BME280;7073;42.672;23.256;2022-11-23T06:26:12;93078.88;;;9.25;100.00
6128;BME280;7073;42.672;23.256;2022-11-23T06:28:40;93069.63;;;9.51;100.00
6128;BME280;7073;42.672;23.256;2022-11-23T06:31:08;93072.56;;;9.38;100.00
6128;BME280;7073;42.672;23.256;2022-11-23T06:33:35;93083.19;;;9.36;100.00
6128;BME280;7073;42.672;23.256;2022-11-23T06:36:02;93076.38;;;9.52;100.00
6128;BME280;7073;42.672;23.256;2022-11-23T06:38:29;93073.47;;;9.27;100.00
6128;BME280;7073;42.672;23.256;2022-11-23T06:40:57;93069.59;;;9.12;100.00
6128;BME280;7073;42.672;23.256;2022-11-23T06:43:24;93072.13;;;9.24;100.00
6128;BME280;7073;42.672;23.256;2022-11-23T06:45:52;93063.81;;;9.44;100.00
6128;BME280;7073;42.672;23.256;2022-11-23T06:48:19;93039.56;;;9.38;100.00
6128;BME280;7073;42.672;23.256;2022-11-23T06:50:46;93048.91;;;9.56;100.00
6128;BME280;7073;42.672;23.256;2022-11-23T06:53:13;93046.59;;;9.59;100.00
6128;BME280;7073;42.672;23.256;2022-11-23T06:55:40;93060.81;;;9.73;100.00
6128;BME280;7073;42.672;23.256;2022-11-23T06:58:08;93055.63;;;9.95;100.00
6128;BME280;7073;42.672;23.256;2022-11-23T07:00:35;93062.75;;;10.26;100.00
6128;BME280;7073;42.672;23.256;2022-11-23T07:03:03;93064.25;;;10.22;100.00
6128;BME280;7073;42.672;23.256;2022-11-23T07:05:31;93060.69;;;9.85;100.00
6128;BME280;7073;42.672;23.256;2022-11-23T07:07:57;93067.47;;;9.86;100.00
6128;BME280;7073;42.672;23.256;2022-11-23T07:10:24;93060.22;;;9.66;100.00
6128;BME280;7073;42.672;23.256;2022-11-23T07:12:51;93056.88;;;9.71;100.00
6128;BME280;7073;42.672;23.256;2022-11-23T07:15:18;93066.44;;;9.87;100.00
6128;BME280;7073;42.672;23.256;2022-11-23T07:17:44;93061.34;;;9.54;100.00
6128;BME280;7073;42.672;23.256;2022-11-23T07:20:13;93090.50;;;9.56;100.00
6128;BME280;7073;42.672;23.256;2022-11-23T07:22:40;93073.91;;;9.62;100.00
6128;BME280;7073;42.672;23.256;2022-11-23T07:25:07;93086.56;;;9.53;100.00
6128;BME280;7073;42.672;23.256;2022-11-23T07:27:35;93072.38;;;9.61;100.00
6128;BME280;7073;42.672;23.256;2022-11-23T07:30:03;93072.06;;;9.79;100.00
6128;BME280;7073;42.672;23.256;2022-11-23T07:32:30;93066.06;;;9.78;100.00
6128;BME280;7073;42.672;23.256;2022-11-23T07:34:56;93079.56;;;9.97;100.00
6128;BME280;7073;42.672;23.256;2022-11-23T07:37:24;93078.41;;;9.88;100.00
6128;BME280;7073;42.672;23.256;2022-11-23T07:39:51;93073.59;;;10.18;100.00
6128;BME280;7073;42.672;23.256;2022-11-23T07:42:18;93071.44;;;10.37;100.00
6128;BME280;7073;42.672;23.256;2022-11-23T07:44:45;93078.03;;;10.44;100.00
6128;BME280;7073;42.672;23.256;2022-11-23T07:47:11;93061.19;;;10.52;100.00
6128;BME280;7073;42.672;23.256;2022-11-23T07:49:38;93071.72;;;10.67;100.00
6128;BME280;7073;42.672;23.256;2022-11-23T07:52:05;93073.00;;;10.65;100.00
6128;BME280;7073;42.672;23.256;2022-11-23T07:54:33;93075.22;;;10.51;100.00
6128;BME280;7073;42.672;23.256;2022-11-23T07:57:01;93070.25;;;10.76;100.00
6128;BME280;7073;42.672;23.256;2022-11-23T07:59:28;93072.78;;;10.98;100.00
6128;BME280;7073;42.672;23.256;2022-11-23T08:01:54;93075.66;;;10.70;100.00
6128;BME280;7073;42.672;23.256;2022-11-23T08:04:21;93075.69;;;11.06;100.00
6128;BME280;7073;42.672;23.256;2022-11-23T08:06:48;93056.75;;;11.58;100.00
6128;BME280;7073;42.672;23.256;2022-11-23T08:09:15;93057.13;;;11.72;100.00
6128;BME280;7073;42.672;23.256;2022-11-23T08:11:43;93056.47;;;11.54;100.00
6128;BME280;7073;42.672;23.256;2022-11-23T08:14:10;93044.19;;;11.50;100.00
6128;BME280;7073;42.672;23.256;2022-11-23T08:16:37;93061.53;;;11.71;100.00
6128;BME280;7073;42.672;23.256;2022-11-23T08:19:04;93032.75;;;12.13;100.00
6128;BME280;7073;42.672;23.256;2022-11-23T08:21:30;93053.69;;;12.38;100.00
6128;BME280;7073;42.672;23.256;2022-11-23T08:23:57;93055.22;;;12.24;100.00
6128;BME280;7073;42.672;23.256;2022-11-23T08:26:24;93046.97;;;13.03;99.48
6128;BME280;7073;42.672;23.256;2022-11-23T08:28:52;93054.81;;;12.87;96.92
6128;BME280;7073;42.672;23.256;2022-11-23T08:31:19;93035.97;;;13.36;95.08
6128;BME280;7073;42.672;23.256;2022-11-23T08:33:46;93046.72;;;13.29;93.93
6128;BME280;7073;42.672;23.256;2022-11-23T08:36:13;93051.16;;;13.34;94.30
6128;BME280;7073;42.672;23.256;2022-11-23T08:38:39;93049.25;;;13.65;93.46
6128;BME280;7073;42.672;23.256;2022-11-23T08:41:06;93040.97;;;13.27;94.36
6128;BME280;7073;42.672;23.256;2022-11-23T08:43:34;93033.38;;;13.16;94.69
6128;BME280;7073;42.672;23.256;2022-11-23T08:46:03;93051.16;;;13.29;95.44
6128;BME280;7073;42.672;23.256;2022-11-23T08:48:30;93055.78;;;13.72;93.60
6128;BME280;7073;42.672;23.256;2022-11-23T08:50:58;93058.97;;;12.83;93.32
6128;BME280;7073;42.672;23.256;2022-11-23T08:53:25;93050.91;;;12.95;97.21
6128;BME280;7073;42.672;23.256;2022-11-23T08:55:52;93055.78;;;13.72;95.43
6128;BME280;7073;42.672;23.256;2022-11-23T08:58:19;93057.53;;;14.02;92.65
6128;BME280;7073;42.672;23.256;2022-11-23T09:00:45;93060.25;;;14.46;91.42
6128;BME280;7073;42.672;23.256;2022-11-23T09:03:13;93060.00;;;14.42;92.19
6128;BME280;7073;42.672;23.256;2022-11-23T09:05:40;93077.03;;;14.40;88.46
6128;BME280;7073;42.672;23.256;2022-11-23T09:08:07;93073.50;;;14.00;90.63
6128;BME280;7073;42.672;23.256;2022-11-23T09:10:35;93056.59;;;13.58;92.42
6128;BME280;7073;42.672;23.256;2022-11-23T09:13:02;93047.16;;;14.41;88.31
6128;BME280;7073;42.672;23.256;2022-11-23T09:15:30;93044.63;;;15.08;86.92
6128;BME280;7073;42.672;23.256;2022-11-23T09:17:56;93035.66;;;15.09;85.36
6128;BME280;7073;42.672;23.256;2022-11-23T09:20:25;93060.22;;;15.23;81.91
6128;BME280;7073;42.672;23.256;2022-11-23T09:22:52;93063.28;;;14.63;83.32
6128;BME280;7073;42.672;23.256;2022-11-23T09:25:20;93045.50;;;15.27;82.16
6128;BME280;7073;42.672;23.256;2022-11-23T09:27:47;93053.28;;;16.37;79.65
6128;BME280;7073;42.672;23.256;2022-11-23T09:30:15;93054.41;;;16.74;75.32
6128;BME280;7073;42.672;23.256;2022-11-23T09:32:42;93051.06;;;16.44;73.98
6128;BME280;7073;42.672;23.256;2022-11-23T09:35:09;93042.19;;;17.15;73.17
6128;BME280;7073;42.672;23.256;2022-11-23T09:37:37;93057.97;;;17.66;67.60
6128;BME280;7073;42.672;23.256;2022-11-23T09:40:05;93047.53;;;18.29;64.51
6128;BME280;7073;42.672;23.256;2022-11-23T09:45:29;93046.47;;;18.57;63.44
6128;BME280;7073;42.672;23.256;2022-11-23T09:48:24;93050.50;;;19.35;59.02
6128;BME280;7073;42.672;23.256;2022-11-23T09:50:58;93061.25;;;19.91;58.11
6128;BME280;7073;42.672;23.256;2022-11-23T09:53:32;93062.31;;;20.21;55.97
6128;BME280;7073;42.672;23.256;2022-11-23T09:56:01;93052.50;;;18.71;57.04
6128;BME280;7073;42.672;23.256;2022-11-23T09:58:31;93051.84;;;19.24;57.83
6128;BME280;7073;42.672;23.256;2022-11-23T10:01:02;93055.09;;;18.85;58.85
6128;BME280;7073;42.672;23.256;2022-11-23T10:03:32;93039.16;;;18.54;62.40
6128;BME280;7073;42.672;23.256;2022-11-23T10:06:04;93054.72;;;19.14;59.34
6128;BME280;7073;42.672;23.256;2022-11-23T10:08:42;93035.78;;;19.20;58.52
6128;BME280;7073;42.672;23.256;2022-11-23T10:11:46;93055.03;;;19.57;57.80
6128;BME280;7073;42.672;23.256;2022-11-23T10:14:28;93040.38;;;18.70;60.36
6128;BME280;7073;42.672;23.256;2022-11-23T10:17:02;93043.19;;;17.19;63.20
6128;BME280;7073;42.672;23.256;2022-11-23T10:19:46;93031.78;;;16.30;68.12
6128;BME280;7073;42.672;23.256;2022-11-23T10:22:20;93024.72;;;18.24;61.69
6128;BME280;7073;42.672;23.256;2022-11-23T10:24:51;93035.53;;;18.23;59.80
6128;BME280;7073;42.672;23.256;2022-11-23T10:27:20;93029.06;;;18.70;59.44
6128;BME280;7073;42.672;23.256;2022-11-23T10:29:48;93036.13;;;18.47;58.39
6128;BME280;7073;42.672;23.256;2022-11-23T10:32:25;93029.69;;;18.26;61.22
6128;BME280;7073;42.672;23.256;2022-11-23T10:35:01;93021.44;;;18.55;60.27
6128;BME280;7073;42.672;23.256;2022-11-23T10:37:29;93030.38;;;18.81;60.02
6128;BME280;7073;42.672;23.256;2022-11-23T10:39:58;93032.84;;;19.00;48.54
6128;BME280;7073;42.672;23.256;2022-11-23T10:42:29;93035.53;;;17.82;47.64
6128;BME280;7073;42.672;23.256;2022-11-23T10:44:58;93027.06;;;18.75;48.05
6128;BME280;7073;42.672;23.256;2022-11-23T10:47:34;93038.84;;;18.91;45.66
6128;BME280;7073;42.672;23.256;2022-11-23T10:50:03;93044.66;;;17.57;47.20
6128;BME280;7073;42.672;23.256;2022-11-23T10:52:49;93022.97;;;17.47;48.62
6128;BME280;7073;42.672;23.256;2022-11-23T10:55:23;93029.56;;;17.31;47.48
6128;BME280;7073;42.672;23.256;2022-11-23T10:57:51;93021.28;;;17.05;47.87
6128;BME280;7073;42.672;23.256;2022-11-23T11:00:19;93004.38;;;16.36;50.55
6128;BME280;7073;42.672;23.256;2022-11-23T11:02:47;92985.19;;;17.56;49.16
6128;BME280;7073;42.672;23.256;2022-11-23T11:05:25;93009.88;;;17.88;47.76
6128;BME280;7073;42.672;23.256;2022-11-23T11:07:53;93038.31;;;16.75;48.79
6128;BME280;7073;42.672;23.256;2022-11-23T11:10:36;93021.63;;;16.85;50.54
6128;BME280;7073;42.672;23.256;2022-11-23T11:13:20;93007.88;;;17.06;49.73
6128;BME280;7073;42.672;23.256;2022-11-23T11:15:51;93011.44;;;16.97;49.09
6128;BME280;7073;42.672;23.256;2022-11-23T11:18:18;93010.34;;;17.62;48.94
6128;BME280;7073;42.672;23.256;2022-11-23T11:20:45;93019.81;;;17.63;48.66
6128;BME280;7073;42.672;23.256;2022-11-23T11:23:15;93017.00;;;17.41;47.90
6128;BME280;7073;42.672;23.256;2022-11-23T11:25:46;93009.81;;;16.82;50.07
6128;BME280;7073;42.672;23.256;2022-11-23T11:28:23;93050.91;;;16.97;48.30
6128;BME280;7073;42.672;23.256;2022-11-23T11:31:14;93019.25;;;16.83;49.55
6128;BME280;7073;42.672;23.256;2022-11-23T11:33:49;93006.56;;;17.36;47.93
6128;BME280;7073;42.672;23.256;2022-11-23T11:36:20;92996.31;;;17.21;49.00
6128;BME280;7073;42.672;23.256;2022-11-23T11:38:51;93011.47;;;17.43;47.82
6128;BME280;7073;42.672;23.256;2022-11-23T11:41:22;93005.78;;;18.09;46.56
6128;BME280;7073;42.672;23.256;2022-11-23T11:43:53;93004.78;;;17.91;46.09
6128;BME280;7073;42.672;23.256;2022-11-23T11:46:32;93011.34;;;17.94;45.85
6128;BME280;7073;42.672;23.256;2022-11-23T11:49:05;93015.59;;;16.66;46.67
6128;BME280;7073;42.672;23.256;2022-11-23T11:51:35;93018.47;;;16.45;46.75
6128;BME280;7073;42.672;23.256;2022-11-23T11:54:10;93020.66;;;16.38;47.71
6128;BME280;7073;42.672;23.256;2022-11-23T11:56:41;93009.69;;;16.55;46.24
6128;BME280;7073;42.672;23.256;2022-11-23T11:59:13;93005.50;;;17.05;46.01
6128;BME280;7073;42.672;23.256;2022-11-23T12:01:50;93008.22;;;18.19;44.59
6128;BME280;7073;42.672;23.256;2022-11-23T12:04:24;93009.56;;;18.44;43.33
6128;BME280;7073;42.672;23.256;2022-11-23T12:06:55;93013.09;;;18.12;43.26
6128;BME280;7073;42.672;23.256;2022-11-23T12:09:30;93015.06;;;18.69;42.24
6128;BME280;7073;42.672;23.256;2022-11-23T12:11:59;93008.50;;;19.47;40.53
6128;BME280;7073;42.672;23.256;2022-11-23T12:14:26;93041.59;;;18.51;40.82
6128;BME280;7073;42.672;23.256;2022-11-23T12:16:57;93015.31;;;18.32;42.65
6128;BME280;7073;42.672;23.256;2022-11-23T12:19:31;93024.34;;;18.80;41.92
6128;BME280;7073;42.672;23.256;2022-11-23T12:22:35;93016.03;;;17.97;43.76
6128;BME280;7073;42.672;23.256;2022-11-23T12:25:15;93037.59;;;17.71;44.13
6128;BME280;7073;42.672;23.256;2022-11-23T12:27:57;93018.56;;;18.02;43.77
6128;BME280;7073;42.672;23.256;2022-11-23T12:30:29;93013.47;;;18.19;43.76
6128;BME280;7073;42.672;23.256;2022-11-23T12:33:29;93007.00;;;18.88;42.97
6128;BME280;7073;42.672;23.256;2022-11-23T12:36:09;93009.13;;;18.64;43.65
6128;BME280;7073;42.672;23.256;2022-11-23T12:38:49;93021.56;;;18.36;44.13
6128;BME280;7073;42.672;23.256;2022-11-23T12:41:23;93003.53;;;17.29;45.70
6128;BME280;7073;42.672;23.256;2022-11-23T12:47:02;93008.72;;;17.34;45.47
6128;BME280;7073;42.672;23.256;2022-11-23T12:49:37;93008.78;;;17.61;45.48
6128;BME280;7073;42.672;23.256;2022-11-23T12:52:22;93014.31;;;17.14;45.14
6128;BME280;7073;42.672;23.256;2022-11-23T12:54:59;93003.94;;;17.36;44.39
6128;BME280;7073;42.672;23.256;2022-11-23T12:57:32;93014.06;;;18.16;42.90
6128;BME280;7073;42.672;23.256;2022-11-23T13:00:03;93015.81;;;18.48;42.74
6128;BME280;7073;42.672;23.256;2022-11-23T13:12:27;93015.09;;;16.64;45.50
6128;BME280;7073;42.672;23.256;2022-11-23T13:15:12;93011.00;;;16.34;46.01
6128;BME280;7073;42.672;23.256;2022-11-23T13:17:46;93023.44;;;16.05;46.46
6128;BME280;7073;42.672;23.256;2022-11-23T13:20:37;93006.25;;;15.93;46.63
6128;BME280;7073;42.672;23.256;2022-11-23T13:23:07;92999.63;;;15.77;47.07
6128;BME280;7073;42.672;23.256;2022-11-23T13:25:35;93010.38;;;15.76;47.56
6128;BME280;7073;42.672;23.256;2022-11-23T13:28:03;93023.47;;;15.81;47.59
6128;BME280;7073;42.672;23.256;2022-11-23T13:30:33;93011.16;;;15.53;48.54
6128;BME280;7073;42.672;23.256;2022-11-23T13:33:25;93022.66;;;15.57;49.39
6128;BME280;7073;42.672;23.256;2022-11-23T13:35:58;93019.13;;;15.43;49.95
6128;BME280;7073;42.672;23.256;2022-11-23T13:38:36;93036.78;;;15.03;50.91